Flight Track Log - Related Links

Times and Time Zones

All times are in EST time to prevent confusion due to time zone crossing. See the DAL1237 flight status page for this flight to view local times or setup timezone preferences in your user account.

Time Position Orientation Groundspeed Altitude Reporting Facility
EST Latitude Longitude Course Direction KTS MPH feet Rate Location/Type
Mon 06:22:15 AM 42.3500 -71.0167 270° West 134 154 1,200  Level KA90
Mon 06:23:09 AM 42.3167 -70.9833 144° Southeast 222 255 2,200 1,974 Climbing KA90
Mon 06:24:00 AM 42.1965 -70.9026 240° Southwest  Level FlightAware Approximate
Mon 06:24:47 AM 42.3328 -70.8178 82° East 320 368 6,200  Level Boston Center
Mon 06:25:00 AM 42.1898 -71.0437 276° West  Level FlightAware Approximate
Mon 06:25:48 AM 42.2981 -70.7278 118° Southeast 285 328 8,800  Level Boston Center
Mon 06:26:00 AM 42.2000 -71.1893 270° West  Level FlightAware Approximate
Mon 06:26:48 AM 42.2506 -70.7786 218° Southwest 261 300 11,400  Level Boston Center
Mon 06:27:00 AM 42.2001 -71.3357 270° West  Level FlightAware Approximate
Mon 06:27:48 AM 42.2250 -70.8733 250° West 255 293 14,100  Level Boston Center
Mon 06:28:49 AM 42.2247 -70.9772 270° West 275 316 16,300 2,274 Climbing Boston Center
Mon 06:29:52 AM 42.2244 -71.0806 270° West 276 318 18,800 1,623 Climbing Boston Center
Mon 06:30:51 AM 42.2258 -71.1806 271° West 282 325 19,600 1,210 Climbing Boston Center
Mon 06:31:51 AM 42.2233 -71.3017 268° West 315 362 21,200 1,587 Climbing Boston Center
Mon 06:32:52 AM 42.2233 -71.4253 270° West 326 375 22,800 1,742 Climbing Boston Center
Mon 06:33:55 AM 42.2214 -71.5483 269° West 329 379 24,800 1,587 Climbing Boston Center
Mon 06:34:53 AM 42.2200 -71.6731 269° West 330 380 26,000 885 Climbing Boston Center
Mon 06:35:57 AM 42.2172 -71.8056 268° West 346 398 26,600 581 Climbing Boston Center
Mon 06:36:57 AM 42.2083 -71.9494 265° West 373 429 27,200 645 Climbing Boston Center
Mon 06:37:58 AM 42.2000 -72.0964 266° West 388 447 27,900 1,041 Climbing Boston Center
Mon 06:38:58 AM 42.1892 -72.2783 265° West 402 463 29,300 1,339 Climbing Boston Center
Mon 06:39:59 AM 42.1797 -72.4278 265° West 400 460 30,600 1,033 Climbing Boston Center
Mon 06:41:00 AM 42.1353 -72.5611 246° West 404 465 31,400 750 Climbing Boston Center
Mon 06:41:59 AM 42.0642 -72.6764 230° Southwest 401 461 32,100 836 Climbing Boston Center
Mon 06:43:02 AM 41.9919 -72.7928 230° Southwest 403 464 33,100 919 Climbing Boston Center
Mon 06:44:03 AM 41.9203 -72.9072 230° Southwest 401 461 34,000 446 Climbing Boston Center
Mon 06:45:03 AM 41.8506 -73.0172 230° Southwest 393 452 34,000  Level Boston Center
Mon 06:46:02 AM 41.7831 -73.1242 230° Southwest 381 438 34,000  Level Boston Center
Mon 06:47:03 AM 41.7161 -73.2294 230° Southwest 376 433 34,000  Level Boston Center
Mon 06:48:07 AM 41.6550 -73.3367 233° Southwest 368 423 34,000  Level Boston Center
Mon 06:49:05 AM 41.6497 -73.4764 267° West 378 435 34,000  Level Boston Center
Mon 06:50:06 AM 41.6514 -73.6194 271° West 384 442 34,000  Level Boston Center
Mon 06:51:07 AM 41.6553 -73.7692 272° West 388 447 34,000 -49 Level Boston Center
Mon 06:52:08 AM 41.6353 -73.9111 259° West 402 463 33,900  Descending Boston Center
Mon 06:53:10 AM 41.5531 -74.0089 222° Southwest 398 458 34,000 50 Climbing Boston Center
Mon 06:54:09 AM 41.4722 -74.1047 222° Southwest 393 452 34,000  Level Boston Center
Mon 06:55:11 AM 41.3911 -74.2022 222° Southwest 394 453 34,000 -443 Level Boston Center
Mon 06:56:11 AM 41.3083 -74.2983 221° Southwest 395 455 33,100 -919 Descending Boston Center
Mon 06:57:15 AM 41.2239 -74.3994 222° Southwest 391 450 32,100 -581 Descending Boston Center
Mon 06:58:15 AM 41.1433 -74.4944 222° Southwest 388 447 31,900 -99 Descending Boston Center
Mon 06:59:16 AM 41.0617 -74.5906 222° Southwest 393 452 31,900 49 Level Boston Center
Mon 07:00:17 AM 40.9783 -74.6867 221° Southwest 397 457 32,000  Climbing Boston Center
Mon 07:01:18 AM 40.8958 -74.7839 222° Southwest 400 460 31,900 -49 Descending Boston Center
Mon 07:02:19 AM 40.7950 -74.9008 221° Southwest 403 464 31,900  Level Boston Center
Mon 07:03:19 AM 40.7117 -74.9989 222° Southwest 404 465 31,900  Level Boston Center
Mon 07:04:21 AM 40.6278 -75.0958 221° Southwest 403 464 31,900 49 Level Boston Center
Mon 07:05:22 AM 40.5428 -75.1925 221° Southwest 404 465 32,000  Climbing Boston Center
Mon 07:06:20 AM 40.4589 -75.2889 221° Southwest 404 465 31,900 -44 Descending Boston Center
Mon 07:07:38 AM 40.3450 -75.4222 222° Southwest 406 467 31,900  Level New York Center
Mon 07:08:38 AM 40.2639 -75.5203 223° Southwest 406 467 31,900  Level New York Center
Mon 07:09:38 AM 40.1928 -75.6294 230° Southwest 406 467 31,900  Level New York Center
Mon 07:10:38 AM 40.1339 -75.7419 236° Southwest 395 455 31,900 50 Level New York Center
Mon 07:11:38 AM 40.0911 -75.8639 245° Southwest 372 428 32,000 50 Climbing New York Center
Mon 07:12:38 AM 40.0500 -75.9936 248° West 377 434 32,000  Level New York Center
Mon 07:13:38 AM 39.9989 -76.1092 240° Southwest 377 434 32,000 -34 Level New York Center
Mon 07:15:32 AM 39.8739 -76.3078 231° Southwest 376 433 31,900 -34 Descending Washington Center
Mon 07:16:32 AM 39.8150 -76.4208 236° Southwest 376 433 31,900 51 Level Washington Center
Mon 07:17:30 AM 39.7494 -76.5306 232° Southwest 386 444 32,000 51 Climbing Washington Center
Mon 07:18:30 AM 39.6842 -76.6431 233° Southwest 392 451 32,000  Level Washington Center
Mon 07:19:31 AM 39.6228 -76.7528 234° Southwest 387 445 32,000  Level Washington Center
Mon 07:20:31 AM 39.5589 -76.8647 234° Southwest 387 445 32,000  Level Washington Center
Mon 07:21:32 AM 39.4953 -76.9711 232° Southwest 387 445 32,000  Level Washington Center
Mon 07:22:29 AM 39.4150 -77.0636 222° Southwest 387 445 32,000  Level Washington Center
Mon 07:23:30 AM 39.3264 -77.1583 220° Southwest 395 455 32,000  Level Washington Center
Mon 07:24:30 AM 39.2397 -77.2450 218° Southwest 406 467 32,000  Level Washington Center
Mon 07:25:31 AM 39.1550 -77.3369 220° Southwest 406 467 32,000  Level Washington Center
Mon 07:26:32 AM 39.0683 -77.4256 218° Southwest 406 467 32,000  Level Washington Center
Mon 07:27:32 AM 38.9814 -77.5142 218° Southwest 406 467 32,000  Level Washington Center
Mon 07:28:30 AM 38.8967 -77.6053 220° Southwest 399 459 32,000  Level Washington Center
Mon 07:29:30 AM 38.8286 -77.6756 219° Southwest 399 459 32,000  Level Washington Center
Mon 07:30:31 AM 38.7267 -77.7764 218° Southwest 408 470 32,000  Level Washington Center
Mon 07:31:32 AM 38.6417 -77.8694 221° Southwest 408 470 32,000  Level Washington Center
Mon 07:32:32 AM 38.5750 -77.9764 231° Southwest 402 463 32,000  Level Washington Center
Mon 07:33:29 AM 38.5103 -78.0858 233° Southwest 397 457 32,000  Level Washington Center
Mon 07:34:30 AM 38.4453 -78.1975 233° Southwest 392 451 32,000  Level Washington Center
Mon 07:35:43 AM 38.3825 -78.3067 234° Southwest 392 451 32,000  Level Washington Center
Mon 07:36:43 AM 38.3044 -78.4361 232° Southwest 392 451 32,000  Level Washington Center
Mon 07:37:43 AM 38.2389 -78.5578 236° Southwest 386 444 32,000  Level Washington Center
Mon 07:38:44 AM 38.1714 -78.6661 232° Southwest 386 444 32,000 51 Level Washington Center
Mon 07:39:41 AM 38.1061 -78.7742 233° Southwest 386 444 32,100  Climbing Washington Center
Mon 07:40:42 AM 38.0383 -78.8847 232° Southwest 391 450 32,000 -49 Descending Washington Center
Mon 07:41:43 AM 37.9814 -78.9825 234° Southwest 391 450 32,000  Level Washington Center
Mon 07:42:44 AM 37.9158 -79.0900 232° Southwest 391 450 32,000  Level Washington Center
Mon 07:43:42 AM 37.8439 -79.1919 228° Southwest 391 450 32,000  Level Washington Center
Mon 07:44:43 AM 37.7719 -79.2936 228° Southwest 396 456 32,000  Level Washington Center
Mon 07:45:44 AM 37.6939 -79.3919 225° Southwest 401 461 32,000  Level Washington Center
Mon 07:46:42 AM 37.6150 -79.5061 229° Southwest 401 461 32,000  Level Washington Center
Mon 07:47:42 AM 37.5494 -79.5969 228° Southwest 401 461 32,000  Level Washington Center
Mon 07:48:42 AM 37.4664 -79.7103 227° Southwest 401 461 32,000  Level Washington Center
Mon 07:49:43 AM 37.3983 -79.8061 228° Southwest 406 467 32,000  Level Washington Center
Mon 07:51:35 AM 37.2453 -80.0083 226° Southwest 384 442 32,000  Level Atlanta Center
Mon 07:52:35 AM 37.1775 -80.1003 227° Southwest 393 452 32,000  Level Atlanta Center
Mon 07:53:35 AM 37.1014 -80.2031 227° Southwest 398 458 32,000  Level Atlanta Center
Mon 07:54:35 AM 37.0233 -80.3056 226° Southwest 403 464 32,000  Level Atlanta Center
Mon 07:55:35 AM 36.9472 -80.4106 228° Southwest 403 464 32,000  Level Atlanta Center
Mon 07:56:35 AM 36.8608 -80.5208 226° Southwest 408 470 32,000  Level Atlanta Center
Mon 07:57:35 AM 36.7844 -80.6228 227° Southwest 403 464 32,000  Level Atlanta Center
Mon 07:58:35 AM 36.7081 -80.7269 228° Southwest 408 470 32,000  Level Atlanta Center
Mon 07:59:35 AM 36.6314 -80.8283 227° Southwest 408 470 32,000  Level Atlanta Center
Mon 08:00:35 AM 36.5608 -80.9217 227° Southwest 408 470 32,000  Level Atlanta Center
Mon 08:01:35 AM 36.4783 -81.0361 228° Southwest 408 470 32,000  Level Atlanta Center
Mon 08:02:35 AM 36.3994 -81.1394 227° Southwest 408 470 32,000  Level Atlanta Center
Mon 08:03:35 AM 36.3225 -81.2375 226° Southwest 408 470 32,000  Level Atlanta Center
Mon 08:04:35 AM 36.2456 -81.3408 227° Southwest 408 470 32,000  Level Atlanta Center
Mon 08:05:35 AM 36.1664 -81.4411 226° Southwest 408 470 32,000  Level Atlanta Center
Mon 08:06:35 AM 36.0872 -81.5414 226° Southwest 408 470 32,000  Level Atlanta Center
Mon 08:07:35 AM 36.0078 -81.6439 226° Southwest 408 470 32,000  Level Atlanta Center
Mon 08:08:35 AM 35.9306 -81.7461 227° Southwest 408 470 32,000  Level Atlanta Center
Mon 08:09:35 AM 35.8508 -81.8458 225° Southwest 408 470 32,000  Level Atlanta Center
Mon 08:10:35 AM 35.7692 -81.9478 225° Southwest 408 470 32,000  Level Atlanta Center
Mon 08:11:35 AM 35.6897 -82.0519 227° Southwest 408 470 32,000  Level Atlanta Center
Mon 08:12:35 AM 35.6100 -82.1536 226° Southwest 413 475 32,000  Level Atlanta Center
Mon 08:13:35 AM 35.5383 -82.2444 226° Southwest 413 475 32,000  Level Atlanta Center
Mon 08:14:35 AM 35.4481 -82.3586 226° Southwest 413 475 32,000  Level Atlanta Center
Mon 08:15:35 AM 35.3761 -82.4494 226° Southwest 413 475 32,000  Level Atlanta Center
Mon 08:16:35 AM 35.2961 -82.5528 227° Southwest 413 475 32,000  Level Atlanta Center
Mon 08:17:35 AM 35.2078 -82.6736 228° Southwest 417 480 32,000 -50 Level Atlanta Center
Mon 08:18:35 AM 35.1256 -82.7692 224° Southwest 417 480 31,900 -550 Descending Atlanta Center
Mon 08:19:35 AM 35.0428 -82.8617 222° Southwest 412 474 30,900 -950 Descending Atlanta Center
Mon 08:20:35 AM 34.9581 -82.9542 222° Southwest 412 474 30,000 -1,000 Descending Atlanta Center
Mon 08:21:35 AM 34.8733 -83.0386 219° Southwest 407 468 28,900 -1,150 Descending Atlanta Center
Mon 08:22:35 AM 34.7864 -83.1233 219° Southwest 407 468 27,700 -1,050 Descending Atlanta Center
Mon 08:23:35 AM 34.7242 -83.1897 221° Southwest 396 456 26,800 -2,350 Descending Atlanta Center
Mon 08:24:35 AM 34.6289 -83.2864 220° Southwest 375 432 23,000 -3,100 Descending Atlanta Center
Mon 08:25:35 AM 34.5561 -83.3603 220° Southwest 361 415 20,600 -1,950 Descending Atlanta Center
Mon 08:26:35 AM 34.4856 -83.4364 222° Southwest 356 410 19,100 -1,400 Descending Atlanta Center
Mon 08:27:35 AM 34.4131 -83.5100 220° Southwest 350 403 17,800 -1,200 Descending Atlanta Center
Mon 08:28:35 AM 34.3506 -83.5708 219° Southwest 344 396 16,700 -1,200 Descending Atlanta Center
Mon 08:29:35 AM 34.2842 -83.6417 221° Southwest 331 381 15,400 -1,300 Descending Atlanta Center
Mon 08:30:35 AM 34.2175 -83.7097 220° Southwest 326 375 14,100 -1,300 Descending Atlanta Center
Mon 08:31:35 AM 34.1508 -83.7828 222° Southwest 326 375 12,800 -1,050 Descending Atlanta Center
Mon 08:32:35 AM 34.0758 -83.8533 218° Southwest 337 388 12,000 -800 Descending Atlanta Center
Mon 08:33:35 AM 34.0092 -83.9286 223° Southwest 337 388 11,200 -900 Descending Atlanta Center
Mon 08:34:35 AM 33.9217 -83.9711 202° Southwest 309 356 10,200 -750 Descending Atlanta Center
Mon 08:35:35 AM 33.8339 -83.9639 176° South 309 356 9,700 -1,050 Descending Atlanta Center
Mon 08:36:35 AM 33.7567 -83.9614 178° South 296 341 8,100 -879 Descending Atlanta Center
Mon 08:38:53 AM 33.6333 -84.0333 206° Southwest 223 257 6,800 -688 Descending Atlanta TRACON
Mon 08:39:47 AM 33.6333 -84.0833 270° West 204 235 5,900 -1,000 Descending Atlanta TRACON
Mon 08:40:47 AM 33.6333 -84.1500 270° West 194 223 4,900 -750 Descending Atlanta TRACON
Mon 08:41:47 AM 33.6333 -84.2167 270° West 170 196 4,400 -750 Descending Atlanta TRACON
Mon 08:42:47 AM 33.6333 -84.2667 270° West 169 194 3,400 -950 Descending Atlanta TRACON
Mon 08:43:47 AM 33.6333 -84.3167 270° West 175 201 2,500 -842 Descending Atlanta TRACON
Mon 08:44:41 AM 33.6333 -84.3667 270° West 145 167 1,800 -632 Descending Atlanta TRACON
Mon 08:45:41 AM 33.6333 -84.4167 270° West 144 166 1,300 -500 Descending Atlanta TRACON

Login

Don't have an account? Register now (free) for customized features, flight alerts, and more!